Главная страница
METAR-TAF:

METAR-TAF

Аэропорты :

Понта-Делгада, Азорские острова, Португалия

широта: 37-44N, долгота: 025-42W, высота над уровнем моря: 71 м

Текущие метеонаблюдения

Эта сводка был подготовлена 18 минут назад, в 22:30 UTC
Ветер 2 Узел переменных направлений
Температура 19°C
Влажность 78%
Давление 1023 hPa
Видимость 10 км и более
небольшая облачность на высоте 2000 фута

METAR: LPPD 222230Z VRB02KT 9999 FEW020 19/15 Q1023

Время: 22:48 (22:48 UTC)

Прогноз

Эта сводка был подготовлена 5 часа и 48 минут назад, в 17:00 UTC
Прогноз действительный с 22-го 18 UTC до 23-го 18 UTC
Ветер 10 Узел от северо-северо-восточный
Видимость 10 км и более
небольшая облачность на высоте 2000 фута
Рассеянная облачность на высоте 3500 фута
временами
С 22-го 18 UTC до 23-го 18 UTC
Отдельные облака на высоте 2500 фута

TAF: LPPD 221700Z 2218/2318 03010KT 9999 FEW020 BKN035 TEMPO 2218/2318 SCT025

Метеонаблюдения и прогнозы для более 4000 аэропортов (сводки METAR и TAF).

Имеющиеся станции представлены на карте желтыми и красными точками.

Чтобы увидеть название станции, наведите на нее мышь.

Затем щелкните, чтобы увидеть метеонаблюдения и метеопрогнозы.

Управление картой: чтобы увеличить масштаб, щелкните зеленые кнопки с черным крестиком; чтобы уменьшить масштаб, щелкните зеленую кнопку с тире; для просмотра соседних карт щелкайте зеленые стрелки.


METAR-TAF: